createdAt,value
2023-02-27T00:00:26.131Z,1022.47
2023-02-27T00:01:26.391Z,1022.45
2023-02-27T00:02:26.089Z,1022.39
2023-02-27T00:03:26.066Z,1022.39
2023-02-27T00:04:26.052Z,1022.40
2023-02-27T00:05:26.060Z,1022.36
2023-02-27T00:06:26.016Z,1022.38
2023-02-27T00:07:26.124Z,1022.41
2023-02-27T00:08:26.111Z,1022.37
2023-02-27T00:09:25.971Z,1022.39
2023-02-27T00:10:25.949Z,1022.38
2023-02-27T00:11:26.404Z,1022.36
2023-02-27T00:12:25.924Z,1022.35
2023-02-27T00:13:25.916Z,1022.41
2023-02-27T00:14:25.893Z,1022.38
2023-02-27T00:15:25.885Z,1022.40
2023-02-27T00:16:25.895Z,1022.40
2023-02-27T00:17:25.918Z,1022.40
2023-02-27T00:18:25.833Z,1022.44
2023-02-27T00:19:25.815Z,1022.43
2023-02-27T00:20:25.806Z,1022.42
2023-02-27T00:21:26.048Z,1022.45
2023-02-27T00:22:25.772Z,1022.45
2023-02-27T00:23:25.753Z,1022.45
2023-02-27T00:24:25.740Z,1022.45
2023-02-27T00:25:25.725Z,1022.49
2023-02-27T00:26:25.758Z,1022.47
2023-02-27T00:27:25.699Z,1022.51
2023-02-27T00:28:25.675Z,1022.47
2023-02-27T00:29:25.660Z,1022.49
2023-02-27T00:30:25.678Z,1022.48
2023-02-27T00:31:25.822Z,1022.49
2023-02-27T00:32:25.791Z,1022.49
2023-02-27T00:33:25.621Z,1022.49
2023-02-27T00:34:25.587Z,1022.46
2023-02-27T00:35:25.568Z,1022.50
2023-02-27T00:36:25.556Z,1022.47
2023-02-27T00:37:25.536Z,1022.51
2023-02-27T00:38:25.525Z,1022.50
2023-02-27T00:39:25.503Z,1022.54
2023-02-27T00:40:25.493Z,1022.52
2023-02-27T00:41:25.835Z,1022.51
2023-02-27T00:42:25.648Z,1022.48
2023-02-27T00:43:25.439Z,1022.50
2023-02-27T00:44:25.435Z,1022.48
2023-02-27T00:45:25.411Z,1022.48
2023-02-27T00:46:25.405Z,1022.51
2023-02-27T00:47:25.408Z,1022.46
2023-02-27T00:48:25.361Z,1022.45
2023-02-27T00:49:25.363Z,1022.48
2023-02-27T00:50:25.332Z,1022.48
2023-02-27T00:51:25.643Z,1022.46
2023-02-27T00:52:25.296Z,1022.46
2023-02-27T00:53:25.280Z,1022.44
2023-02-27T00:54:25.276Z,1022.42
2023-02-27T00:55:27.170Z,1022.44
2023-02-27T00:56:25.248Z,1022.43
2023-02-27T00:57:25.275Z,1022.45
2023-02-27T00:58:25.214Z,1022.43
2023-02-27T00:59:25.195Z,1022.39
2023-02-27T01:00:25.174Z,1022.37
2023-02-27T01:01:25.466Z,1022.40
2023-02-27T01:02:25.167Z,1022.40
2023-02-27T01:03:25.130Z,1022.40
2023-02-27T01:04:25.129Z,1022.40
2023-02-27T01:05:25.104Z,1022.38
2023-02-27T01:06:25.085Z,1022.33
2023-02-27T01:07:25.075Z,1022.31
2023-02-27T01:08:25.061Z,1022.32
2023-02-27T01:09:25.125Z,1022.29
2023-02-27T01:10:25.023Z,1022.32
2023-02-27T01:11:25.286Z,1022.29
2023-02-27T01:12:24.996Z,1022.29
2023-02-27T01:13:24.983Z,1022.35
2023-02-27T01:14:24.978Z,1022.34
2023-02-27T01:15:24.954Z,1022.32
2023-02-27T01:16:25.061Z,1022.31
2023-02-27T01:17:24.935Z,1022.29
2023-02-27T01:18:24.902Z,1022.31
2023-02-27T01:19:24.889Z,1022.30
2023-02-27T01:20:24.874Z,1022.31
2023-02-27T01:21:25.282Z,1022.31
2023-02-27T01:22:24.849Z,1022.30
2023-02-27T01:23:24.831Z,1022.31
2023-02-27T01:24:24.809Z,1022.33
2023-02-27T01:25:24.795Z,1022.32
2023-02-27T01:26:24.779Z,1022.34
2023-02-27T01:27:24.764Z,1022.30
2023-02-27T01:28:24.743Z,1022.30
2023-02-27T01:29:24.740Z,1022.32
2023-02-27T01:30:39.419Z,1022.28
2023-02-27T01:32:29.227Z,1022.29
2023-02-27T01:33:29.179Z,1022.29
2023-02-27T01:34:29.162Z,1022.33
2023-02-27T01:35:29.150Z,1022.29
2023-02-27T01:36:29.127Z,1022.28
2023-02-27T01:37:29.112Z,1022.30
2023-02-27T01:38:29.099Z,1022.27
2023-02-27T01:39:29.083Z,1022.27
2023-02-27T01:40:29.063Z,1022.29
2023-02-27T01:41:29.205Z,1022.27
2023-02-27T01:42:29.038Z,1022.26
2023-02-27T01:43:29.016Z,1022.28
2023-02-27T01:44:29.025Z,1022.27
2023-02-27T01:45:29.023Z,1022.28
2023-02-27T01:46:28.987Z,1022.29
2023-02-27T01:47:28.955Z,1022.26
2023-02-27T01:48:28.938Z,1022.27
2023-02-27T01:49:29.200Z,1022.28
2023-02-27T01:50:28.956Z,1022.29
2023-02-27T01:51:29.084Z,1022.30
2023-02-27T01:52:28.883Z,1022.26
2023-02-27T01:53:28.858Z,1022.27
2023-02-27T01:54:28.848Z,1022.29
2023-02-27T01:55:28.842Z,1022.29
2023-02-27T01:56:28.816Z,1022.26
2023-02-27T01:57:28.794Z,1022.28
2023-02-27T01:58:28.782Z,1022.24
2023-02-27T01:59:28.770Z,1022.29
2023-02-27T02:00:28.752Z,1022.27
2023-02-27T02:01:28.984Z,1022.28
2023-02-27T02:02:28.745Z,1022.29
2023-02-27T02:03:28.706Z,1022.31
2023-02-27T02:04:28.697Z,1022.31
2023-02-27T02:05:28.697Z,1022.27
2023-02-27T02:06:28.680Z,1022.28
2023-02-27T02:07:28.672Z,1022.26
2023-02-27T02:08:28.630Z,1022.25
2023-02-27T02:09:28.648Z,1022.27
2023-02-27T02:10:28.603Z,1022.25
2023-02-27T02:11:28.813Z,1022.26
2023-02-27T02:12:28.560Z,1022.25
2023-02-27T02:13:28.554Z,1022.26
2023-02-27T02:14:28.533Z,1022.25
2023-02-27T02:15:28.525Z,1022.27
2023-02-27T02:16:28.585Z,1022.25
2023-02-27T02:17:28.483Z,1022.21
2023-02-27T02:18:28.467Z,1022.18
2023-02-27T02:19:28.452Z,1022.21
2023-02-27T02:20:28.437Z,1022.18
2023-02-27T02:21:28.650Z,1022.20
2023-02-27T02:22:28.407Z,1022.18
2023-02-27T02:23:28.392Z,1022.21
2023-02-27T02:24:28.382Z,1022.21
2023-02-27T02:25:28.365Z,1022.20
2023-02-27T02:26:31.012Z,1022.23
2023-02-27T02:27:28.334Z,1022.20
2023-02-27T02:28:28.313Z,1022.24
2023-02-27T02:29:28.295Z,1022.24
2023-02-27T02:30:28.446Z,1022.22
2023-02-27T02:31:28.707Z,1022.27
2023-02-27T02:32:28.287Z,1022.26
2023-02-27T02:33:28.230Z,1022.28
2023-02-27T02:34:28.218Z,1022.30
2023-02-27T02:35:28.207Z,1022.26
2023-02-27T02:36:28.191Z,1022.30
2023-02-27T02:37:28.176Z,1022.33
2023-02-27T02:38:28.156Z,1022.30
2023-02-27T02:39:28.141Z,1022.34
2023-02-27T02:40:28.125Z,1022.35
2023-02-27T02:41:28.373Z,1022.36
2023-02-27T02:42:28.094Z,1022.36
2023-02-27T02:43:28.078Z,1022.35
2023-02-27T02:44:28.062Z,1022.36
2023-02-27T02:45:28.041Z,1022.35
2023-02-27T02:46:28.029Z,1022.39
2023-02-27T02:47:28.018Z,1022.36
2023-02-27T02:48:28.011Z,1022.37
2023-02-27T02:49:27.986Z,1022.40
2023-02-27T02:50:28.009Z,1022.39
2023-02-27T02:51:28.264Z,1022.41
2023-02-27T02:52:27.946Z,1022.40
2023-02-27T02:53:36.115Z,1022.45
2023-02-27T02:54:27.903Z,1022.47
2023-02-27T02:55:27.892Z,1022.51
2023-02-27T02:56:27.874Z,1022.50
2023-02-27T02:57:27.857Z,1022.52
2023-02-27T02:58:27.844Z,1022.50
2023-02-27T02:59:27.829Z,1022.52
2023-02-27T03:00:27.812Z,1022.50
2023-02-27T03:01:28.151Z,1022.45
2023-02-27T03:02:27.778Z,1022.49
2023-02-27T03:03:27.774Z,1022.53
2023-02-27T03:04:27.757Z,1022.47
2023-02-27T03:05:27.740Z,1022.53
2023-02-27T03:06:27.725Z,1022.50
2023-02-27T03:07:27.746Z,1022.51
2023-02-27T03:08:27.687Z,1022.50
2023-02-27T03:09:27.679Z,1022.53
2023-02-27T03:10:27.653Z,1022.54
2023-02-27T03:11:28.050Z,1022.54
2023-02-27T03:12:27.618Z,1022.54
2023-02-27T03:13:27.607Z,1022.58
2023-02-27T03:14:27.591Z,1022.60
2023-02-27T03:15:27.576Z,1022.59
2023-02-27T03:16:27.597Z,1022.59
2023-02-27T03:17:27.546Z,1022.60
2023-02-27T03:18:27.527Z,1022.61
2023-02-27T03:19:27.517Z,1022.62
2023-02-27T03:20:27.494Z,1022.63
2023-02-27T03:21:27.811Z,1022.63
2023-02-27T03:22:27.464Z,1022.63
2023-02-27T03:23:27.442Z,1022.63
2023-02-27T03:24:27.431Z,1022.65
2023-02-27T03:25:27.421Z,1022.67
2023-02-27T03:26:27.396Z,1022.69
2023-02-27T03:27:27.378Z,1022.71
2023-02-27T03:28:27.368Z,1022.69
2023-02-27T03:29:27.382Z,1022.73
2023-02-27T03:30:27.370Z,1022.75
2023-02-27T03:31:27.779Z,1022.70
2023-02-27T03:32:27.323Z,1022.77
2023-02-27T03:33:27.293Z,1022.75
2023-02-27T03:34:27.267Z,1022.78
2023-02-27T03:35:27.255Z,1022.76
2023-02-27T03:36:27.237Z,1022.79
2023-02-27T03:37:27.222Z,1022.80
2023-02-27T03:38:27.205Z,1022.78
2023-02-27T03:39:27.200Z,1022.76
2023-02-27T03:40:27.197Z,1022.81
2023-02-27T03:41:27.519Z,1022.82
2023-02-27T03:42:27.149Z,1022.80
2023-02-27T03:43:27.128Z,1022.79
2023-02-27T03:44:27.107Z,1022.81
2023-02-27T03:45:27.107Z,1022.80
2023-02-27T03:46:27.106Z,1022.84
2023-02-27T03:47:27.069Z,1022.86
2023-02-27T03:48:27.048Z,1022.88
2023-02-27T03:49:27.026Z,1022.89
2023-02-27T03:50:27.011Z,1022.86
2023-02-27T03:51:27.301Z,1022.88
2023-02-27T03:52:26.991Z,1022.91
2023-02-27T03:53:26.963Z,1022.90
2023-02-27T03:54:26.948Z,1022.92
2023-02-27T03:55:26.936Z,1022.91
2023-02-27T03:56:26.921Z,1022.90
2023-02-27T03:57:26.897Z,1022.93
2023-02-27T03:58:26.892Z,1022.92
2023-02-27T03:59:26.886Z,1022.92
2023-02-27T04:00:26.853Z,1022.92
2023-02-27T04:01:27.284Z,1022.96
2023-02-27T04:02:26.862Z,1022.93
2023-02-27T04:03:26.813Z,1022.95
2023-02-27T04:04:26.799Z,1022.99
2023-02-27T04:05:26.773Z,1022.99
2023-02-27T04:06:26.755Z,1022.98
2023-02-27T04:07:26.758Z,1023.00
2023-02-27T04:08:26.728Z,1023.00
2023-02-27T04:09:26.723Z,1022.97
2023-02-27T04:10:26.745Z,1022.98
2023-02-27T04:11:27.030Z,1022.95
2023-02-27T04:12:26.668Z,1023.01
2023-02-27T04:13:26.653Z,1023.00
2023-02-27T04:14:26.651Z,1023.00
2023-02-27T04:15:26.615Z,1023.01
2023-02-27T04:16:26.630Z,1023.04
2023-02-27T04:17:26.583Z,1023.06
2023-02-27T04:18:26.580Z,1023.11
2023-02-27T04:19:26.554Z,1023.08
2023-02-27T04:20:26.542Z,1023.13
2023-02-27T04:21:26.824Z,1023.10
2023-02-27T04:22:26.506Z,1023.14
2023-02-27T04:23:26.489Z,1023.15
2023-02-27T04:24:26.476Z,1023.14
2023-02-27T04:25:26.463Z,1023.14
2023-02-27T04:26:26.443Z,1023.15
2023-02-27T04:27:26.427Z,1023.16
2023-02-27T04:28:26.411Z,1023.17
2023-02-27T04:29:26.397Z,1023.17
2023-02-27T04:30:26.377Z,1023.20
2023-02-27T04:31:26.888Z,1023.17
2023-02-27T04:32:26.486Z,1023.24
2023-02-27T04:33:26.330Z,1023.21
2023-02-27T04:34:26.317Z,1023.15
2023-02-27T04:35:26.310Z,1023.19
2023-02-27T04:36:26.292Z,1023.19
2023-02-27T04:37:26.265Z,1023.19
2023-02-27T04:38:26.261Z,1023.21
2023-02-27T04:39:26.240Z,1023.19
2023-02-27T04:40:26.230Z,1023.18
2023-02-27T04:41:26.575Z,1023.14
2023-02-27T04:42:26.202Z,1023.20
2023-02-27T04:43:26.175Z,1023.22
2023-02-27T04:44:26.169Z,1023.22
2023-02-27T04:45:26.222Z,1023.21
2023-02-27T04:46:26.127Z,1023.22
2023-02-27T04:47:26.111Z,1023.20
2023-02-27T04:48:26.102Z,1023.22
2023-02-27T04:49:26.078Z,1023.21
2023-02-27T04:50:26.063Z,1023.24
2023-02-27T04:51:26.430Z,1023.24
2023-02-27T04:52:26.033Z,1023.24
2023-02-27T04:53:26.014Z,1023.23
2023-02-27T04:54:25.999Z,1023.21
2023-02-27T04:55:25.979Z,1023.23
2023-02-27T04:56:25.967Z,1023.25
2023-02-27T04:57:25.950Z,1023.22
2023-02-27T04:58:25.939Z,1023.24
2023-02-27T04:59:25.923Z,1023.22
2023-02-27T05:00:25.903Z,1023.24
2023-02-27T05:01:26.419Z,1023.19
2023-02-27T05:02:25.931Z,1023.22
2023-02-27T05:03:25.858Z,1023.21
2023-02-27T05:04:25.841Z,1023.23
2023-02-27T05:05:25.818Z,1023.24
2023-02-27T05:06:25.808Z,1023.24
2023-02-27T05:07:25.792Z,1023.20
2023-02-27T05:08:25.777Z,1023.19
2023-02-27T05:09:25.756Z,1023.17
2023-02-27T05:10:25.746Z,1023.22
2023-02-27T05:11:25.988Z,1023.19
2023-02-27T05:12:25.713Z,1023.20
2023-02-27T05:13:25.693Z,1023.19
2023-02-27T05:14:25.677Z,1023.16
2023-02-27T05:15:25.705Z,1023.18
2023-02-27T05:16:25.705Z,1023.18
2023-02-27T05:17:25.630Z,1023.17
2023-02-27T05:18:25.608Z,1023.19
2023-02-27T05:19:25.692Z,1023.18
2023-02-27T05:20:25.971Z,1023.18
2023-02-27T05:21:25.816Z,1023.20
2023-02-27T05:22:25.570Z,1023.18
2023-02-27T05:23:25.532Z,1023.18
2023-02-27T05:24:25.525Z,1023.17
2023-02-27T05:25:25.506Z,1023.18
2023-02-27T05:26:25.485Z,1023.22
2023-02-27T05:27:25.473Z,1023.21
2023-02-27T05:28:25.459Z,1023.20
2023-02-27T05:29:25.455Z,1023.20
2023-02-27T05:30:25.428Z,1023.24
2023-02-27T05:31:25.738Z,1023.24
2023-02-27T05:32:25.460Z,1023.25
2023-02-27T05:33:25.392Z,1023.26
2023-02-27T05:34:25.375Z,1023.24
2023-02-27T05:35:27.457Z,1023.27
2023-02-27T05:36:25.331Z,1023.24
2023-02-27T05:37:25.303Z,1023.30
2023-02-27T05:38:25.287Z,1023.31
2023-02-27T05:39:25.276Z,1023.28
2023-02-27T05:40:25.260Z,1023.32
2023-02-27T05:41:25.648Z,1023.37
2023-02-27T05:42:25.287Z,1023.38
2023-02-27T05:43:25.209Z,1023.38
2023-02-27T05:44:25.192Z,1023.41
2023-02-27T05:45:25.183Z,1023.43
2023-02-27T05:46:25.162Z,1023.49
2023-02-27T05:47:25.147Z,1023.51
2023-02-27T05:48:25.138Z,1023.54
2023-02-27T05:49:25.110Z,1023.58
2023-02-27T05:50:25.104Z,1023.61
2023-02-27T05:51:25.370Z,1023.63
2023-02-27T05:52:25.068Z,1023.61
2023-02-27T05:53:25.052Z,1023.64
2023-02-27T05:54:25.040Z,1023.61
2023-02-27T05:55:25.045Z,1023.56
2023-02-27T05:56:25.077Z,1023.55
2023-02-27T05:57:24.985Z,1023.58
2023-02-27T05:58:24.966Z,1023.54
2023-02-27T05:59:24.957Z,1023.52
2023-02-27T06:00:24.940Z,1023.52
2023-02-27T06:01:24.944Z,1023.57
2023-02-27T06:02:24.941Z,1023.60
2023-02-27T06:03:24.928Z,1023.58
2023-02-27T06:04:24.878Z,1023.60
2023-02-27T06:05:24.861Z,1023.62
2023-02-27T06:06:25.060Z,1023.64
2023-02-27T06:07:24.829Z,1023.67
2023-02-27T06:08:24.816Z,1023.68
2023-02-27T06:09:24.803Z,1023.68
2023-02-27T06:10:24.785Z,1023.67
2023-02-27T06:11:24.765Z,1023.65
2023-02-27T06:12:24.750Z,1023.68
2023-02-27T06:13:24.734Z,1023.65
2023-02-27T06:14:24.724Z,1023.69
2023-02-27T06:15:24.704Z,1023.72
2023-02-27T06:16:24.813Z,1023.74
2023-02-27T06:17:24.670Z,1023.76
2023-02-27T06:18:24.650Z,1023.79
2023-02-27T06:19:24.637Z,1023.78
2023-02-27T06:20:24.620Z,1023.79
2023-02-27T06:21:24.645Z,1023.82
2023-02-27T06:22:24.597Z,1023.88
2023-02-27T06:23:24.610Z,1023.87
2023-02-27T06:24:24.557Z,1023.93
2023-02-27T06:25:24.551Z,1023.91
2023-02-27T06:26:24.700Z,1023.93
2023-02-27T06:27:24.511Z,1023.91
2023-02-27T06:28:24.493Z,1023.90
2023-02-27T06:29:24.474Z,1023.91
2023-02-27T06:30:24.463Z,1023.93
2023-02-27T06:31:24.444Z,1023.93
2023-02-27T06:32:24.440Z,1023.93
2023-02-27T06:33:24.406Z,1023.96
2023-02-27T06:34:24.396Z,1023.94
2023-02-27T06:35:24.385Z,1023.96
2023-02-27T06:36:24.366Z,1023.97
2023-02-27T06:37:24.346Z,1023.94
2023-02-27T06:38:24.379Z,1023.92
2023-02-27T06:39:24.316Z,1023.90
2023-02-27T06:40:24.297Z,1023.91
2023-02-27T06:41:24.279Z,1023.92
2023-02-27T06:42:24.269Z,1023.92
2023-02-27T06:43:24.248Z,1023.94
2023-02-27T06:44:24.282Z,1023.98
2023-02-27T06:45:24.241Z,1023.98
2023-02-27T06:46:24.238Z,1023.96
2023-02-27T06:47:24.180Z,1023.95
2023-02-27T06:48:24.171Z,1023.94
2023-02-27T06:49:24.152Z,1023.94
2023-02-27T06:50:24.130Z,1023.95
2023-02-27T06:51:24.119Z,1023.94
2023-02-27T06:52:24.101Z,1023.95
2023-02-27T06:53:24.085Z,1023.95
2023-02-27T06:54:24.067Z,1023.95
2023-02-27T06:55:24.049Z,1023.94
2023-02-27T06:56:24.044Z,1023.95
2023-02-27T06:57:24.018Z,1023.97
2023-02-27T06:58:24.002Z,1023.98
2023-02-27T06:59:24.017Z,1024.03
2023-02-27T07:00:24.001Z,1024.06
2023-02-27T07:01:23.975Z,1024.10
2023-02-27T07:02:23.939Z,1024.12
2023-02-27T07:03:23.950Z,1024.08
2023-02-27T07:04:23.932Z,1024.11
2023-02-27T07:05:23.895Z,1024.18
2023-02-27T07:06:31.921Z,1024.27
2023-02-27T07:07:36.368Z,1024.31
2023-02-27T07:08:23.838Z,1024.34
2023-02-27T07:09:23.832Z,1024.38
2023-02-27T07:10:23.831Z,1024.42
2023-02-27T07:11:23.798Z,1024.42
2023-02-27T07:12:23.784Z,1024.48
2023-02-27T07:13:23.781Z,1024.47
2023-02-27T07:14:23.771Z,1024.51
2023-02-27T07:15:23.732Z,1024.55
2023-02-27T07:16:23.719Z,1024.52
2023-02-27T07:17:23.702Z,1024.51
2023-02-27T07:18:23.691Z,1024.55
2023-02-27T07:19:23.683Z,1024.57
2023-02-27T07:20:23.665Z,1024.54
2023-02-27T07:21:23.638Z,1024.52
2023-02-27T07:22:23.621Z,1024.53
2023-02-27T07:23:23.627Z,1024.54
2023-02-27T07:24:23.587Z,1024.59
2023-02-27T07:25:23.571Z,1024.56
2023-02-27T07:26:23.557Z,1024.54
2023-02-27T07:27:23.544Z,1024.56
2023-02-27T07:28:23.573Z,1024.59
2023-02-27T07:29:23.504Z,1024.59
2023-02-27T07:30:23.509Z,1024.56
2023-02-27T07:31:23.575Z,1024.59
2023-02-27T07:33:55.086Z,1024.55
2023-02-27T07:34:55.067Z,1024.60
2023-02-27T07:36:59.048Z,1024.58
2023-02-27T07:37:59.021Z,1024.61
2023-02-27T07:40:02.976Z,1024.59
2023-02-27T07:41:02.950Z,1024.59
2023-02-27T07:43:06.938Z,1024.59
2023-02-27T07:44:06.901Z,1024.62
2023-02-27T07:45:06.882Z,1024.59
2023-02-27T07:46:06.874Z,1024.62
2023-02-27T07:47:06.853Z,1024.64
2023-02-27T07:48:06.838Z,1024.66
2023-02-27T07:49:06.817Z,1024.67
2023-02-27T07:50:06.807Z,1024.67
2023-02-27T07:51:06.789Z,1024.65
2023-02-27T07:52:06.852Z,1024.68
2023-02-27T07:53:06.755Z,1024.66
2023-02-27T07:54:06.745Z,1024.70
2023-02-27T07:55:06.729Z,1024.69
2023-02-27T07:56:06.712Z,1024.65
2023-02-27T07:57:06.699Z,1024.69
2023-02-27T07:58:06.684Z,1024.71
2023-02-27T07:59:06.710Z,1024.71
2023-02-27T08:00:06.653Z,1024.69
2023-02-27T08:01:06.635Z,1024.67
2023-02-27T08:02:06.632Z,1024.72
2023-02-27T08:03:06.628Z,1024.68
2023-02-27T08:04:06.596Z,1024.69
2023-02-27T08:05:06.579Z,1024.69
2023-02-27T08:06:06.565Z,1024.66
2023-02-27T08:07:06.547Z,1024.70
2023-02-27T08:08:06.531Z,1024.69
2023-02-27T08:09:06.517Z,1024.73
2023-02-27T08:10:06.510Z,1024.70
2023-02-27T08:11:06.488Z,1024.71
2023-02-27T08:12:06.476Z,1024.67
2023-02-27T08:13:06.458Z,1024.70
2023-02-27T08:14:06.470Z,1024.69
2023-02-27T08:15:06.429Z,1024.74
2023-02-27T08:16:06.447Z,1024.72
2023-02-27T08:17:06.397Z,1024.74
2023-02-27T08:18:06.385Z,1024.76
2023-02-27T08:19:06.383Z,1024.73
2023-02-27T08:20:06.351Z,1024.75
2023-02-27T08:21:06.341Z,1024.75
2023-02-27T08:22:06.326Z,1024.76
2023-02-27T08:23:06.319Z,1024.79
2023-02-27T08:24:06.303Z,1024.79
2023-02-27T08:25:06.281Z,1024.75
2023-02-27T08:26:06.264Z,1024.78
2023-02-27T08:27:06.250Z,1024.80
2023-02-27T08:28:06.246Z,1024.81
2023-02-27T08:29:06.221Z,1024.83
2023-02-27T08:30:06.226Z,1024.81
2023-02-27T08:31:06.238Z,1024.84
2023-02-27T08:32:06.476Z,1024.87
2023-02-27T08:33:06.162Z,1024.83
2023-02-27T08:34:10.134Z,1024.86
2023-02-27T08:35:06.153Z,1024.88
2023-02-27T08:36:06.187Z,1024.90
2023-02-27T08:37:06.123Z,1024.91
2023-02-27T08:38:06.089Z,1024.85
2023-02-27T08:39:06.079Z,1024.87
2023-02-27T08:40:06.067Z,1024.85
2023-02-27T08:41:06.053Z,1024.90
2023-02-27T08:42:06.039Z,1024.92
2023-02-27T08:43:06.020Z,1024.91
2023-02-27T08:44:06.022Z,1024.93
2023-02-27T08:45:05.984Z,1024.89
2023-02-27T08:46:06.146Z,1024.93
2023-02-27T08:47:05.958Z,1024.95
2023-02-27T08:48:05.952Z,1024.92
2023-02-27T08:49:05.929Z,1024.91
2023-02-27T08:50:05.915Z,1024.89
2023-02-27T08:51:05.899Z,1024.89
2023-02-27T08:52:05.891Z,1024.90
2023-02-27T08:53:05.871Z,1024.93
2023-02-27T08:54:05.872Z,1024.92
2023-02-27T08:55:06.001Z,1024.96
2023-02-27T08:56:05.873Z,1024.95
2023-02-27T08:57:05.813Z,1024.95
2023-02-27T08:58:05.801Z,1024.93
2023-02-27T08:59:05.784Z,1024.99
2023-02-27T09:00:05.819Z,1024.98
2023-02-27T09:01:05.783Z,1024.97
2023-02-27T09:02:05.745Z,1024.97
2023-02-27T09:03:05.881Z,1024.97
2023-02-27T09:04:05.723Z,1025.02
2023-02-27T09:05:05.702Z,1024.99
2023-02-27T09:06:05.697Z,1024.97
2023-02-27T09:07:05.675Z,1024.97
2023-02-27T09:08:05.662Z,1025.02
2023-02-27T09:09:05.640Z,1025.00
2023-02-27T09:10:05.641Z,1025.00
2023-02-27T09:11:05.629Z,1025.05
2023-02-27T09:12:05.612Z,1025.05
2023-02-27T09:13:05.607Z,1025.06
2023-02-27T09:14:05.573Z,1025.04
2023-02-27T09:15:05.567Z,1024.98
2023-02-27T09:16:05.749Z,1025.00
2023-02-27T09:17:05.543Z,1024.98
2023-02-27T09:18:05.522Z,1024.98
2023-02-27T09:19:05.504Z,1025.02
2023-02-27T09:20:05.492Z,1024.98
2023-02-27T09:21:05.485Z,1024.98
2023-02-27T09:22:05.466Z,1024.94
2023-02-27T09:23:05.460Z,1024.98
2023-02-27T09:24:18.708Z,1024.99
2023-02-27T09:25:05.419Z,1025.00
2023-02-27T09:26:05.411Z,1025.01
2023-02-27T09:27:05.396Z,1024.96
2023-02-27T09:28:05.396Z,1024.97
2023-02-27T09:29:05.367Z,1025.01
2023-02-27T09:30:05.353Z,1025.01
2023-02-27T09:31:05.342Z,1025.00
2023-02-27T09:32:05.449Z,1025.00
2023-02-27T09:33:05.322Z,1024.99
2023-02-27T09:34:05.299Z,1025.00
2023-02-27T09:35:05.285Z,1024.97
2023-02-27T09:36:05.305Z,1025.02
2023-02-27T09:37:05.258Z,1025.02
2023-02-27T09:38:05.279Z,1025.04
2023-02-27T09:39:05.230Z,1025.07
2023-02-27T09:40:05.221Z,1025.07
2023-02-27T09:41:05.219Z,1025.05
2023-02-27T09:42:05.192Z,1025.05
2023-02-27T09:43:05.230Z,1025.03
2023-02-27T09:44:05.165Z,1025.08
2023-02-27T09:45:06.152Z,1025.18
2023-02-27T09:46:05.186Z,1025.17
2023-02-27T09:47:05.127Z,1025.17
2023-02-27T09:48:05.116Z,1025.16
2023-02-27T09:49:05.097Z,1025.13
2023-02-27T09:50:05.089Z,1025.19
2023-02-27T09:51:05.071Z,1025.19
2023-02-27T09:52:05.068Z,1025.17
2023-02-27T09:53:05.049Z,1025.20
2023-02-27T09:54:05.030Z,1025.19
2023-02-27T09:55:05.030Z,1025.23
2023-02-27T09:56:05.009Z,1025.20
2023-02-27T09:57:05.001Z,1025.18
2023-02-27T09:58:04.981Z,1025.26
2023-02-27T09:59:04.966Z,1025.21
2023-02-27T10:00:05.012Z,1025.21
2023-02-27T10:01:04.943Z,1025.29
2023-02-27T10:02:04.993Z,1025.23
2023-02-27T10:03:04.969Z,1025.22
2023-02-27T10:04:04.898Z,1025.22
2023-02-27T10:05:04.897Z,1025.19
2023-02-27T10:06:07.101Z,1025.22
2023-02-27T10:07:04.894Z,1025.23
2023-02-27T10:08:04.856Z,1025.24
2023-02-27T10:09:04.845Z,1025.24
2023-02-27T10:10:04.852Z,1025.22
2023-02-27T10:11:04.818Z,1025.24
2023-02-27T10:12:07.034Z,1025.22
2023-02-27T10:13:04.790Z,1025.23
2023-02-27T10:14:04.781Z,1025.25
2023-02-27T10:15:04.766Z,1025.23
2023-02-27T10:16:04.759Z,1025.26
2023-02-27T10:17:04.861Z,1025.28
2023-02-27T10:18:16.850Z,1025.28
2023-02-27T10:19:04.730Z,1025.33
2023-02-27T10:20:04.713Z,1025.33
2023-02-27T10:21:04.715Z,1025.37
2023-02-27T10:22:04.681Z,1025.32
2023-02-27T10:23:04.666Z,1025.39
2023-02-27T10:24:06.741Z,1025.38
2023-02-27T10:25:04.651Z,1025.37
2023-02-27T10:26:04.629Z,1025.39
2023-02-27T10:27:04.616Z,1025.41
2023-02-27T10:28:04.610Z,1025.38
2023-02-27T10:29:04.591Z,1025.39
2023-02-27T10:30:04.580Z,1025.41
2023-02-27T10:31:04.578Z,1025.43
2023-02-27T10:32:04.617Z,1025.42
2023-02-27T10:33:04.539Z,1025.43
2023-02-27T10:34:04.534Z,1025.42
2023-02-27T10:35:04.531Z,1025.38
2023-02-27T10:36:04.604Z,1025.43
2023-02-27T10:37:04.497Z,1025.42
2023-02-27T10:38:04.489Z,1025.44
2023-02-27T10:39:04.477Z,1025.44
2023-02-27T10:40:04.461Z,1025.42
2023-02-27T10:41:04.442Z,1025.47
2023-02-27T10:42:04.446Z,1025.43
2023-02-27T10:43:06.330Z,1025.45
2023-02-27T10:44:04.441Z,1025.45
2023-02-27T10:45:04.407Z,1025.45
2023-02-27T10:46:04.388Z,1025.44
2023-02-27T10:47:04.371Z,1025.46
2023-02-27T10:48:04.408Z,1025.45
2023-02-27T10:49:04.345Z,1025.45
2023-02-27T10:50:04.333Z,1025.46
2023-02-27T10:51:04.316Z,1025.47
2023-02-27T10:52:04.422Z,1025.49
2023-02-27T10:53:04.313Z,1025.49
2023-02-27T10:54:04.279Z,1025.50
2023-02-27T10:55:04.266Z,1025.48
2023-02-27T10:56:04.338Z,1025.52
2023-02-27T10:57:04.247Z,1025.50
2023-02-27T10:58:04.228Z,1025.52
2023-02-27T10:59:04.238Z,1025.52
2023-02-27T11:00:04.233Z,1025.45
2023-02-27T11:01:04.201Z,1025.52
2023-02-27T11:02:04.189Z,1025.53
2023-02-27T11:03:04.161Z,1025.50
2023-02-27T11:04:04.171Z,1025.52
2023-02-27T11:05:04.143Z,1025.50
2023-02-27T11:06:04.132Z,1025.53
2023-02-27T11:07:04.124Z,1025.49
2023-02-27T11:08:04.113Z,1025.52
2023-02-27T11:09:04.097Z,1025.49
2023-02-27T11:10:04.078Z,1025.51
2023-02-27T11:11:04.068Z,1025.52
2023-02-27T11:12:04.060Z,1025.52
2023-02-27T11:13:04.048Z,1025.49
2023-02-27T11:14:04.045Z,1025.56
2023-02-27T11:15:04.020Z,1025.49
2023-02-27T11:16:04.042Z,1025.54
2023-02-27T11:17:03.997Z,1025.51
2023-02-27T11:18:03.980Z,1025.57
2023-02-27T11:19:03.971Z,1025.56
2023-02-27T11:20:03.955Z,1025.51
2023-02-27T11:21:03.951Z,1025.54
2023-02-27T11:22:03.932Z,1025.52
2023-02-27T11:23:03.924Z,1025.51
2023-02-27T11:24:03.910Z,1025.52
2023-02-27T11:25:04.283Z,1025.51
2023-02-27T11:26:03.884Z,1025.49
2023-02-27T11:27:03.873Z,1025.45
2023-02-27T11:28:03.859Z,1025.47
2023-02-27T11:29:03.845Z,1025.42
2023-02-27T11:30:03.838Z,1025.41
2023-02-27T11:31:03.890Z,1025.42
2023-02-27T11:32:03.850Z,1025.38
2023-02-27T11:33:03.795Z,1025.40
2023-02-27T11:34:03.785Z,1025.43
2023-02-27T11:35:03.775Z,1025.40
2023-02-27T11:36:03.825Z,1025.36
2023-02-27T11:37:03.773Z,1025.41
2023-02-27T11:38:03.742Z,1025.37
2023-02-27T11:39:03.730Z,1025.39
2023-02-27T11:40:03.705Z,1025.35
2023-02-27T11:41:03.702Z,1025.39
2023-02-27T11:42:03.696Z,1025.38
2023-02-27T11:43:03.676Z,1025.39
2023-02-27T11:44:03.663Z,1025.38
2023-02-27T11:45:03.659Z,1025.37
2023-02-27T11:46:04.484Z,1025.39
2023-02-27T11:47:03.691Z,1025.39
2023-02-27T11:48:03.622Z,1025.39
2023-02-27T11:49:03.592Z,1025.38
2023-02-27T11:50:03.581Z,1025.34
2023-02-27T11:51:03.585Z,1025.31
2023-02-27T11:52:03.563Z,1025.26
2023-02-27T11:53:03.545Z,1025.29
2023-02-27T11:54:03.564Z,1025.34
2023-02-27T11:55:03.520Z,1025.34
2023-02-27T11:56:03.515Z,1025.30
2023-02-27T11:57:03.498Z,1025.27
2023-02-27T11:58:03.481Z,1025.31
2023-02-27T11:59:03.475Z,1025.33
2023-02-27T12:00:03.461Z,1025.34
2023-02-27T12:01:03.450Z,1025.34
2023-02-27T12:02:03.431Z,1025.30
2023-02-27T12:03:03.468Z,1025.32
2023-02-27T12:04:03.457Z,1025.33
2023-02-27T12:05:03.411Z,1025.28
2023-02-27T12:06:03.419Z,1025.32
2023-02-27T12:07:03.375Z,1025.30
2023-02-27T12:08:03.355Z,1025.25
2023-02-27T12:09:03.349Z,1025.23
2023-02-27T12:10:03.327Z,1025.23
2023-02-27T12:11:13.886Z,1025.18